sensor_id;sensor_type;location;lat;lon;timestamp;P1;durP1;ratioP1;P2;durP2;ratioP2
77953;SDS011;67151;52.544;6.034;2023-02-01T00:00:08;4.4;;;1.5;;
77953;SDS011;67151;52.544;6.034;2023-02-01T00:00:22;5.1;;;1.8;;
77953;SDS011;67151;52.544;6.034;2023-02-01T00:00:37;5;;;1.9;;
77953;SDS011;67151;52.544;6.034;2023-02-01T00:00:52;4.8;;;1.7;;
77953;SDS011;67151;52.544;6.034;2023-02-01T00:01:07;5.6;;;1.8;;
77953;SDS011;67151;52.544;6.034;2023-02-01T00:01:29;5.7;;;1.8;;
77953;SDS011;67151;52.544;6.034;2023-02-01T00:01:37;5.4;;;1.9;;
77953;SDS011;67151;52.544;6.034;2023-02-01T00:01:52;5.9;;;2;;
77953;SDS011;67151;52.544;6.034;2023-02-01T00:02:08;6.1;;;2.1;;
77953;SDS011;67151;52.544;6.034;2023-02-01T00:02:29;5.2;;;1.9;;
77953;SDS011;67151;52.544;6.034;2023-02-01T00:02:37;4.5;;;1.8;;
77953;SDS011;67151;52.544;6.034;2023-02-01T00:02:52;4.6;;;1.9;;
77953;SDS011;67151;52.544;6.034;2023-02-01T00:03:07;4.8;;;2;;
77953;SDS011;67151;52.544;6.034;2023-02-01T00:03:22;5.1;;;1.8;;
77953;SDS011;67151;52.544;6.034;2023-02-01T00:03:37;5;;;1.6;;
77953;SDS011;67151;52.544;6.034;2023-02-01T00:03:52;5.8;;;1.8;;
77953;SDS011;67151;52.544;6.034;2023-02-01T00:04:07;5.2;;;1.8;;
77953;SDS011;67151;52.544;6.034;2023-02-01T00:04:22;4.3;;;1.7;;
77953;SDS011;67151;52.544;6.034;2023-02-01T00:04:37;5.3;;;1.8;;
77953;SDS011;67151;52.544;6.034;2023-02-01T00:04:52;5.4;;;1.7;;
77953;SDS011;67151;52.544;6.034;2023-02-01T00:05:07;5.4;;;1.9;;
77953;SDS011;67151;52.544;6.034;2023-02-01T00:05:27;5;;;1.8;;
77953;SDS011;67151;52.544;6.034;2023-02-01T00:05:37;4.9;;;1.7;;
77953;SDS011;67151;52.544;6.034;2023-02-01T00:05:55;5.1;;;1.9;;
77953;SDS011;67151;52.544;6.034;2023-02-01T00:06:07;3.8;;;1.9;;
77953;SDS011;67151;52.544;6.034;2023-02-01T00:06:25;4.6;;;1.7;;
77953;SDS011;67151;52.544;6.034;2023-02-01T00:06:37;5.5;;;1.7;;
77953;SDS011;67151;52.544;6.034;2023-02-01T00:06:52;4.6;;;1.8;;
77953;SDS011;67151;52.544;6.034;2023-02-01T00:07:07;4.4;;;1.9;;
77953;SDS011;67151;52.544;6.034;2023-02-01T00:07:22;4.5;;;1.9;;
77953;SDS011;67151;52.544;6.034;2023-02-01T00:07:37;4.5;;;1.9;;
77953;SDS011;67151;52.544;6.034;2023-02-01T00:07:52;5.4;;;1.7;;
77953;SDS011;67151;52.544;6.034;2023-02-01T00:08:08;6;;;1.6;;
77953;SDS011;67151;52.544;6.034;2023-02-01T00:08:22;5.4;;;1.7;;
77953;SDS011;67151;52.544;6.034;2023-02-01T00:08:37;4.2;;;1.7;;
77953;SDS011;67151;52.544;6.034;2023-02-01T00:08:52;4.1;;;1.7;;
77953;SDS011;67151;52.544;6.034;2023-02-01T00:09:10;5.2;;;1.6;;
77953;SDS011;67151;52.544;6.034;2023-02-01T00:09:22;5.5;;;1.5;;
77953;SDS011;67151;52.544;6.034;2023-02-01T00:09:37;5.2;;;1.6;;
77953;SDS011;67151;52.544;6.034;2023-02-01T00:09:52;4.5;;;1.6;;
77953;SDS011;67151;52.544;6.034;2023-02-01T00:10:08;4;;;1.5;;
77953;SDS011;67151;52.544;6.034;2023-02-01T00:10:22;4.8;;;1.6;;
77953;SDS011;67151;52.544;6.034;2023-02-01T00:10:37;6.4;;;1.7;;
77953;SDS011;67151;52.544;6.034;2023-02-01T00:10:57;5.8;;;1.6;;
77953;SDS011;67151;52.544;6.034;2023-02-01T00:11:08;3.5;;;1.5;;
77953;SDS011;67151;52.544;6.034;2023-02-01T00:11:22;4;;;1.6;;
77953;SDS011;67151;52.544;6.034;2023-02-01T00:11:37;4.8;;;1.7;;
77953;SDS011;67151;52.544;6.034;2023-02-01T00:11:52;4.5;;;1.6;;
77953;SDS011;67151;52.544;6.034;2023-02-01T00:12:10;4.2;;;1.6;;
77953;SDS011;67151;52.544;6.034;2023-02-01T00:12:22;4.1;;;1.7;;
77953;SDS011;67151;52.544;6.034;2023-02-01T00:12:37;5.1;;;1.9;;
77953;SDS011;67151;52.544;6.034;2023-02-01T00:12:52;4.9;;;1.8;;
77953;SDS011;67151;52.544;6.034;2023-02-01T00:13:07;4.5;;;1.5;;
77953;SDS011;67151;52.544;6.034;2023-02-01T00:13:22;5.3;;;1.6;;
77953;SDS011;67151;52.544;6.034;2023-02-01T00:13:38;4.8;;;1.6;;
77953;SDS011;67151;52.544;6.034;2023-02-01T00:13:52;4.2;;;1.6;;
77953;SDS011;67151;52.544;6.034;2023-02-01T00:14:12;4.4;;;1.7;;
77953;SDS011;67151;52.544;6.034;2023-02-01T00:14:22;4.4;;;1.7;;
77953;SDS011;67151;52.544;6.034;2023-02-01T00:14:37;4.9;;;1.7;;
77953;SDS011;67151;52.544;6.034;2023-02-01T00:14:52;4.7;;;1.8;;
77953;SDS011;67151;52.544;6.034;2023-02-01T00:15:07;5.7;;;1.8;;
77953;SDS011;67151;52.544;6.034;2023-02-01T00:15:22;6.2;;;1.9;;
77953;SDS011;67151;52.544;6.034;2023-02-01T00:15:38;5.1;;;1.8;;
77953;SDS011;67151;52.544;6.034;2023-02-01T00:15:52;5.7;;;2;;
77953;SDS011;67151;52.544;6.034;2023-02-01T00:16:08;5.4;;;1.8;;
77953;SDS011;67151;52.544;6.034;2023-02-01T00:16:26;5;;;1.5;;
77953;SDS011;67151;52.544;6.034;2023-02-01T00:16:37;4.6;;;1.6;;
77953;SDS011;67151;52.544;6.034;2023-02-01T00:16:52;4.6;;;1.9;;
77953;SDS011;67151;52.544;6.034;2023-02-01T00:17:08;4.9;;;1.8;;
77953;SDS011;67151;52.544;6.034;2023-02-01T00:17:27;4.7;;;1.5;;
77953;SDS011;67151;52.544;6.034;2023-02-01T00:17:37;4.9;;;1.5;;
77953;SDS011;67151;52.544;6.034;2023-02-01T00:17:52;5.4;;;1.7;;
77953;SDS011;67151;52.544;6.034;2023-02-01T00:18:07;4.8;;;1.6;;
77953;SDS011;67151;52.544;6.034;2023-02-01T00:18:22;4.3;;;1.4;;
77953;SDS011;67151;52.544;6.034;2023-02-01T00:18:37;5.4;;;1.7;;
77953;SDS011;67151;52.544;6.034;2023-02-01T00:18:56;5.8;;;2.1;;
77953;SDS011;67151;52.544;6.034;2023-02-01T00:19:09;5.1;;;2;;
77953;SDS011;67151;52.544;6.034;2023-02-01T00:19:22;4.9;;;1.7;;
77953;SDS011;67151;52.544;6.034;2023-02-01T00:19:37;4.7;;;1.6;;
77953;SDS011;67151;52.544;6.034;2023-02-01T00:19:52;4.2;;;1.8;;
77953;SDS011;67151;52.544;6.034;2023-02-01T00:20:08;4.8;;;1.8;;
77953;SDS011;67151;52.544;6.034;2023-02-01T00:20:27;4.7;;;1.8;;
77953;SDS011;67151;52.544;6.034;2023-02-01T00:20:37;5.1;;;1.8;;
77953;SDS011;67151;52.544;6.034;2023-02-01T00:20:52;6.1;;;1.7;;
77953;SDS011;67151;52.544;6.034;2023-02-01T00:21:07;5.9;;;1.9;;
77953;SDS011;67151;52.544;6.034;2023-02-01T00:21:25;5.3;;;1.9;;
77953;SDS011;67151;52.544;6.034;2023-02-01T00:21:37;5.6;;;1.8;;
77953;SDS011;67151;52.544;6.034;2023-02-01T00:21:52;6.9;;;1.8;;
77953;SDS011;67151;52.544;6.034;2023-02-01T00:22:07;6;;;1.9;;
77953;SDS011;67151;52.544;6.034;2023-02-01T00:22:22;5.5;;;2;;
77953;SDS011;67151;52.544;6.034;2023-02-01T00:22:37;6.6;;;1.9;;
77953;SDS011;67151;52.544;6.034;2023-02-01T00:22:53;5.6;;;1.5;;
77953;SDS011;67151;52.544;6.034;2023-02-01T00:23:07;5.1;;;1.6;;
77953;SDS011;67151;52.544;6.034;2023-02-01T00:23:22;6.8;;;1.8;;
77953;SDS011;67151;52.544;6.034;2023-02-01T00:23:37;7;;;1.8;;
77953;SDS011;67151;52.544;6.034;2023-02-01T00:23:52;6.2;;;1.8;;
77953;SDS011;67151;52.544;6.034;2023-02-01T00:24:08;5.4;;;1.8;;
77953;SDS011;67151;52.544;6.034;2023-02-01T00:24:22;4.9;;;1.7;;
77953;SDS011;67151;52.544;6.034;2023-02-01T00:24:37;4.7;;;1.6;;
77953;SDS011;67151;52.544;6.034;2023-02-01T00:24:52;4.5;;;1.7;;
77953;SDS011;67151;52.544;6.034;2023-02-01T00:25:07;4.4;;;1.7;;
77953;SDS011;67151;52.544;6.034;2023-02-01T00:25:22;4.4;;;1.8;;
77953;SDS011;67151;52.544;6.034;2023-02-01T00:25:37;5;;;1.9;;
77953;SDS011;67151;52.544;6.034;2023-02-01T00:25:52;6.3;;;1.7;;
77953;SDS011;67151;52.544;6.034;2023-02-01T00:26:09;5.7;;;1.6;;
77953;SDS011;67151;52.544;6.034;2023-02-01T00:26:23;4.4;;;1.7;;
77953;SDS011;67151;52.544;6.034;2023-02-01T00:26:38;5;;;1.7;;
77953;SDS011;67151;52.544;6.034;2023-02-01T00:26:52;5;;;1.7;;
77953;SDS011;67151;52.544;6.034;2023-02-01T00:27:10;4.4;;;1.7;;
77953;SDS011;67151;52.544;6.034;2023-02-01T00:27:22;3.8;;;1.7;;
77953;SDS011;67151;52.544;6.034;2023-02-01T00:27:37;5;;;1.7;;
77953;SDS011;67151;52.544;6.034;2023-02-01T00:27:52;5.6;;;1.8;;
77953;SDS011;67151;52.544;6.034;2023-02-01T00:28:07;4.3;;;1.7;;
77953;SDS011;67151;52.544;6.034;2023-02-01T00:28:23;3.6;;;1.5;;
77953;SDS011;67151;52.544;6.034;2023-02-01T00:28:37;3.5;;;1.5;;
77953;SDS011;67151;52.544;6.034;2023-02-01T00:28:52;4;;;1.5;;
77953;SDS011;67151;52.544;6.034;2023-02-01T00:29:09;4.5;;;1.8;;
77953;SDS011;67151;52.544;6.034;2023-02-01T00:29:22;6.8;;;1.8;;
77953;SDS011;67151;52.544;6.034;2023-02-01T00:29:37;7.1;;;1.7;;
77953;SDS011;67151;52.544;6.034;2023-02-01T00:29:55;4.9;;;1.7;;
77953;SDS011;67151;52.544;6.034;2023-02-01T00:30:07;5;;;1.8;;
77953;SDS011;67151;52.544;6.034;2023-02-01T00:30:22;4.7;;;1.7;;
77953;SDS011;67151;52.544;6.034;2023-02-01T00:30:37;4.6;;;1.7;;
77953;SDS011;67151;52.544;6.034;2023-02-01T00:30:55;5.1;;;1.9;;
77953;SDS011;67151;52.544;6.034;2023-02-01T00:31:07;4.8;;;1.8;;
77953;SDS011;67151;52.544;6.034;2023-02-01T00:31:24;4.5;;;1.8;;
77953;SDS011;67151;52.544;6.034;2023-02-01T00:31:37;4.6;;;1.8;;
77953;SDS011;67151;52.544;6.034;2023-02-01T00:31:52;4.9;;;1.7;;
77953;SDS011;67151;52.544;6.034;2023-02-01T00:32:07;4.7;;;1.6;;
77953;SDS011;67151;52.544;6.034;2023-02-01T00:32:22;5.1;;;1.7;;
77953;SDS011;67151;52.544;6.034;2023-02-01T00:32:37;5;;;1.8;;
77953;SDS011;67151;52.544;6.034;2023-02-01T00:32:52;4.8;;;1.7;;
77953;SDS011;67151;52.544;6.034;2023-02-01T00:33:07;4.4;;;1.6;;
77953;SDS011;67151;52.544;6.034;2023-02-01T00:33:22;3.6;;;1.6;;
77953;SDS011;67151;52.544;6.034;2023-02-01T00:33:37;4.2;;;1.9;;
77953;SDS011;67151;52.544;6.034;2023-02-01T00:33:52;4.1;;;2;;
77953;SDS011;67151;52.544;6.034;2023-02-01T00:34:08;3.8;;;2;;
77953;SDS011;67151;52.544;6.034;2023-02-01T00:34:22;3.9;;;1.9;;
77953;SDS011;67151;52.544;6.034;2023-02-01T00:34:37;4.7;;;1.8;;
77953;SDS011;67151;52.544;6.034;2023-02-01T00:34:52;5.6;;;1.9;;
77953;SDS011;67151;52.544;6.034;2023-02-01T00:35:08;5.1;;;1.8;;
77953;SDS011;67151;52.544;6.034;2023-02-01T00:35:22;4.7;;;1.7;;
77953;SDS011;67151;52.544;6.034;2023-02-01T00:35:37;4.8;;;1.8;;
77953;SDS011;67151;52.544;6.034;2023-02-01T00:35:55;4.5;;;1.8;;
77953;SDS011;67151;52.544;6.034;2023-02-01T00:36:07;5;;;1.8;;
77953;SDS011;67151;52.544;6.034;2023-02-01T00:36:22;4.7;;;1.8;;
77953;SDS011;67151;52.544;6.034;2023-02-01T00:36:37;4.8;;;1.7;;
77953;SDS011;67151;52.544;6.034;2023-02-01T00:36:52;5.4;;;1.9;;
77953;SDS011;67151;52.544;6.034;2023-02-01T00:37:07;5.1;;;1.8;;
77953;SDS011;67151;52.544;6.034;2023-02-01T00:37:22;4.3;;;1.7;;
77953;SDS011;67151;52.544;6.034;2023-02-01T00:37:37;4.5;;;1.7;;
77953;SDS011;67151;52.544;6.034;2023-02-01T00:37:52;5.2;;;1.5;;
77953;SDS011;67151;52.544;6.034;2023-02-01T00:38:07;5.5;;;1.5;;
77953;SDS011;67151;52.544;6.034;2023-02-01T00:38:22;5.4;;;1.8;;
77953;SDS011;67151;52.544;6.034;2023-02-01T00:38:37;4.8;;;1.7;;
77953;SDS011;67151;52.544;6.034;2023-02-01T00:38:52;5.4;;;1.8;;
77953;SDS011;67151;52.544;6.034;2023-02-01T00:39:08;5.9;;;1.9;;
77953;SDS011;67151;52.544;6.034;2023-02-01T00:39:22;5.3;;;1.7;;
77953;SDS011;67151;52.544;6.034;2023-02-01T00:39:37;4.7;;;1.7;;
77953;SDS011;67151;52.544;6.034;2023-02-01T00:39:52;4.4;;;1.6;;
77953;SDS011;67151;52.544;6.034;2023-02-01T00:40:07;5;;;2;;
77953;SDS011;67151;52.544;6.034;2023-02-01T00:40:22;4.9;;;2.2;;
77953;SDS011;67151;52.544;6.034;2023-02-01T00:40:37;4.4;;;2;;
77953;SDS011;67151;52.544;6.034;2023-02-01T00:40:52;4.5;;;1.7;;
77953;SDS011;67151;52.544;6.034;2023-02-01T00:41:09;3.9;;;1.5;;
77953;SDS011;67151;52.544;6.034;2023-02-01T00:41:23;4;;;1.7;;
77953;SDS011;67151;52.544;6.034;2023-02-01T00:41:37;5.2;;;1.7;;
77953;SDS011;67151;52.544;6.034;2023-02-01T00:41:52;5.3;;;1.9;;
77953;SDS011;67151;52.544;6.034;2023-02-01T00:42:07;4.7;;;1.8;;
77953;SDS011;67151;52.544;6.034;2023-02-01T00:42:22;4.2;;;1.5;;
77953;SDS011;67151;52.544;6.034;2023-02-01T00:42:37;3.9;;;1.4;;
77953;SDS011;67151;52.544;6.034;2023-02-01T00:42:52;4.6;;;1.6;;
77953;SDS011;67151;52.544;6.034;2023-02-01T00:43:07;6.8;;;1.8;;
77953;SDS011;67151;52.544;6.034;2023-02-01T00:43:22;6;;;1.8;;
77953;SDS011;67151;52.544;6.034;2023-02-01T00:43:37;5.5;;;1.8;;
77953;SDS011;67151;52.544;6.034;2023-02-01T00:43:52;5.6;;;1.7;;
77953;SDS011;67151;52.544;6.034;2023-02-01T00:44:07;4.5;;;1.6;;
77953;SDS011;67151;52.544;6.034;2023-02-01T00:44:22;4.5;;;1.8;;
77953;SDS011;67151;52.544;6.034;2023-02-01T00:44:37;4.4;;;1.9;;
77953;SDS011;67151;52.544;6.034;2023-02-01T00:44:52;4.2;;;1.7;;
77953;SDS011;67151;52.544;6.034;2023-02-01T00:45:07;4.2;;;1.7;;
77953;SDS011;67151;52.544;6.034;2023-02-01T00:45:22;4.3;;;1.7;;
77953;SDS011;67151;52.544;6.034;2023-02-01T00:45:37;6.6;;;1.9;;
77953;SDS011;67151;52.544;6.034;2023-02-01T00:45:53;6.4;;;1.9;;
77953;SDS011;67151;52.544;6.034;2023-02-01T00:46:07;4;;;1.7;;
77953;SDS011;67151;52.544;6.034;2023-02-01T00:46:22;4;;;1.7;;
77953;SDS011;67151;52.544;6.034;2023-02-01T00:46:37;3.7;;;1.6;;
77953;SDS011;67151;52.544;6.034;2023-02-01T00:46:52;3.7;;;1.5;;
77953;SDS011;67151;52.544;6.034;2023-02-01T00:47:07;4.9;;;1.8;;
77953;SDS011;67151;52.544;6.034;2023-02-01T00:47:22;5.2;;;1.8;;
77953;SDS011;67151;52.544;6.034;2023-02-01T00:47:37;4.9;;;1.6;;
77953;SDS011;67151;52.544;6.034;2023-02-01T00:47:52;4.5;;;1.6;;
77953;SDS011;67151;52.544;6.034;2023-02-01T00:48:07;4.9;;;1.9;;
77953;SDS011;67151;52.544;6.034;2023-02-01T00:48:22;4.3;;;1.7;;
77953;SDS011;67151;52.544;6.034;2023-02-01T00:48:37;3.7;;;1.5;;
77953;SDS011;67151;52.544;6.034;2023-02-01T00:48:52;5;;;1.8;;
77953;SDS011;67151;52.544;6.034;2023-02-01T00:49:07;5.5;;;1.9;;
77953;SDS011;67151;52.544;6.034;2023-02-01T00:49:22;5.2;;;1.8;;
77953;SDS011;67151;52.544;6.034;2023-02-01T00:49:37;4.7;;;1.7;;
77953;SDS011;67151;52.544;6.034;2023-02-01T00:49:53;4.3;;;1.7;;
77953;SDS011;67151;52.544;6.034;2023-02-01T00:50:07;4.4;;;1.7;;
77953;SDS011;67151;52.544;6.034;2023-02-01T00:50:22;5.2;;;1.7;;
77953;SDS011;67151;52.544;6.034;2023-02-01T00:50:40;5;;;1.7;;
77953;SDS011;67151;52.544;6.034;2023-02-01T00:50:52;4.4;;;1.8;;
77953;SDS011;67151;52.544;6.034;2023-02-01T00:51:08;4.4;;;1.7;;
77953;SDS011;67151;52.544;6.034;2023-02-01T00:51:27;5.3;;;1.7;;
77953;SDS011;67151;52.544;6.034;2023-02-01T00:51:37;5.6;;;1.7;;
77953;SDS011;67151;52.544;6.034;2023-02-01T00:51:52;5.7;;;1.9;;
77953;SDS011;67151;52.544;6.034;2023-02-01T00:52:07;5.2;;;1.9;;
77953;SDS011;67151;52.544;6.034;2023-02-01T00:52:22;4.8;;;1.6;;
77953;SDS011;67151;52.544;6.034;2023-02-01T00:52:37;5.2;;;1.7;;
77953;SDS011;67151;52.544;6.034;2023-02-01T00:52:52;5.6;;;1.8;;
77953;SDS011;67151;52.544;6.034;2023-02-01T00:53:08;5.6;;;1.8;;
77953;SDS011;67151;52.544;6.034;2023-02-01T00:53:22;5.3;;;1.7;;
77953;SDS011;67151;52.544;6.034;2023-02-01T00:53:37;4.8;;;1.7;;
77953;SDS011;67151;52.544;6.034;2023-02-01T00:53:52;4.3;;;1.7;;
77953;SDS011;67151;52.544;6.034;2023-02-01T00:54:07;4.5;;;1.8;;
77953;SDS011;67151;52.544;6.034;2023-02-01T00:54:22;4.6;;;1.7;;
77953;SDS011;67151;52.544;6.034;2023-02-01T00:54:37;4.2;;;1.6;;
77953;SDS011;67151;52.544;6.034;2023-02-01T00:54:52;4;;;1.8;;
77953;SDS011;67151;52.544;6.034;2023-02-01T00:55:07;4.8;;;1.8;;
77953;SDS011;67151;52.544;6.034;2023-02-01T00:55:22;4.9;;;1.9;;
77953;SDS011;67151;52.544;6.034;2023-02-01T00:55:37;4.5;;;1.8;;
77953;SDS011;67151;52.544;6.034;2023-02-01T00:55:52;4.6;;;1.7;;
77953;SDS011;67151;52.544;6.034;2023-02-01T00:56:07;4.8;;;1.5;;
77953;SDS011;67151;52.544;6.034;2023-02-01T00:56:22;4.2;;;1.4;;
77953;SDS011;67151;52.544;6.034;2023-02-01T00:56:37;5;;;1.6;;
77953;SDS011;67151;52.544;6.034;2023-02-01T00:56:52;5.2;;;1.7;;
77953;SDS011;67151;52.544;6.034;2023-02-01T00:57:07;4.2;;;1.6;;
77953;SDS011;67151;52.544;6.034;2023-02-01T00:57:22;3.9;;;1.7;;
77953;SDS011;67151;52.544;6.034;2023-02-01T00:57:37;4.7;;;1.6;;
77953;SDS011;67151;52.544;6.034;2023-02-01T00:57:52;4.8;;;1.5;;
77953;SDS011;67151;52.544;6.034;2023-02-01T00:58:07;3.6;;;1.4;;
77953;SDS011;67151;52.544;6.034;2023-02-01T00:58:23;4;;;1.4;;
77953;SDS011;67151;52.544;6.034;2023-02-01T00:58:37;4.4;;;1.5;;
77953;SDS011;67151;52.544;6.034;2023-02-01T00:58:52;4.6;;;1.8;;
77953;SDS011;67151;52.544;6.034;2023-02-01T00:59:07;4.3;;;1.8;;
77953;SDS011;67151;52.544;6.034;2023-02-01T00:59:22;4;;;1.6;;
77953;SDS011;67151;52.544;6.034;2023-02-01T00:59:37;4.5;;;1.6;;
77953;SDS011;67151;52.544;6.034;2023-02-01T00:59:52;5;;;1.6;;
77953;SDS011;67151;52.544;6.034;2023-02-01T01:00:08;4.8;;;1.5;;
77953;SDS011;67151;52.544;6.034;2023-02-01T01:00:22;4.2;;;1.4;;
77953;SDS011;67151;52.544;6.034;2023-02-01T01:00:37;4.1;;;1.4;;
77953;SDS011;67151;52.544;6.034;2023-02-01T01:01:00;4;;;1.6;;
77953;SDS011;67151;52.544;6.034;2023-02-01T01:01:08;3.5;;;1.5;;
77953;SDS011;67151;52.544;6.034;2023-02-01T01:01:23;3.5;;;1.3;;
77953;SDS011;67151;52.544;6.034;2023-02-01T01:01:37;3.6;;;1.3;;
77953;SDS011;67151;52.544;6.034;2023-02-01T01:01:52;4.3;;;1.7;;
77953;SDS011;67151;52.544;6.034;2023-02-01T01:02:07;5.1;;;2.1;;
77953;SDS011;67151;52.544;6.034;2023-02-01T01:02:22;5;;;1.9;;
77953;SDS011;67151;52.544;6.034;2023-02-01T01:02:37;4.6;;;1.4;;
77953;SDS011;67151;52.544;6.034;2023-02-01T01:02:52;4.8;;;1.5;;
77953;SDS011;67151;52.544;6.034;2023-02-01T01:03:07;5.5;;;1.6;;
77953;SDS011;67151;52.544;6.034;2023-02-01T01:03:23;4.9;;;1.6;;
77953;SDS011;67151;52.544;6.034;2023-02-01T01:03:38;3.7;;;1.4;;
77953;SDS011;67151;52.544;6.034;2023-02-01T01:03:53;4.1;;;1.4;;
77953;SDS011;67151;52.544;6.034;2023-02-01T01:04:07;4;;;1.5;;
77953;SDS011;67151;52.544;6.034;2023-02-01T01:04:22;3.6;;;1.6;;
77953;SDS011;67151;52.544;6.034;2023-02-01T01:04:37;4;;;1.8;;
77953;SDS011;67151;52.544;6.034;2023-02-01T01:04:52;4.1;;;1.6;;
77953;SDS011;67151;52.544;6.034;2023-02-01T01:05:07;4;;;1.5;;
77953;SDS011;67151;52.544;6.034;2023-02-01T01:05:24;3.6;;;1.5;;
77953;SDS011;67151;52.544;6.034;2023-02-01T01:05:37;3.7;;;1.5;;
77953;SDS011;67151;52.544;6.034;2023-02-01T01:05:56;4.6;;;1.7;;
77953;SDS011;67151;52.544;6.034;2023-02-01T01:06:08;4.4;;;1.6;;
77953;SDS011;67151;52.544;6.034;2023-02-01T01:06:23;3.8;;;1.6;;
77953;SDS011;67151;52.544;6.034;2023-02-01T01:06:37;5.3;;;1.8;;
77953;SDS011;67151;52.544;6.034;2023-02-01T01:06:52;6.1;;;1.7;;
77953;SDS011;67151;52.544;6.034;2023-02-01T01:07:07;5.3;;;1.7;;
77953;SDS011;67151;52.544;6.034;2023-02-01T01:07:22;4.3;;;1.6;;
77953;SDS011;67151;52.544;6.034;2023-02-01T01:07:37;3.6;;;1.5;;
77953;SDS011;67151;52.544;6.034;2023-02-01T01:07:52;4;;;1.6;;
77953;SDS011;67151;52.544;6.034;2023-02-01T01:08:07;5.1;;;1.7;;
77953;SDS011;67151;52.544;6.034;2023-02-01T01:08:22;4.7;;;1.6;;
77953;SDS011;67151;52.544;6.034;2023-02-01T01:08:38;5.2;;;1.7;;
77953;SDS011;67151;52.544;6.034;2023-02-01T01:08:53;6;;;1.9;;
77953;SDS011;67151;52.544;6.034;2023-02-01T01:09:07;5.5;;;1.8;;
77953;SDS011;67151;52.544;6.034;2023-02-01T01:09:22;4.5;;;1.8;;
77953;SDS011;67151;52.544;6.034;2023-02-01T01:09:37;4.2;;;1.7;;
77953;SDS011;67151;52.544;6.034;2023-02-01T01:09:52;4.5;;;1.6;;
77953;SDS011;67151;52.544;6.034;2023-02-01T01:10:07;4.4;;;1.8;;
77953;SDS011;67151;52.544;6.034;2023-02-01T01:10:26;4.5;;;1.9;;
77953;SDS011;67151;52.544;6.034;2023-02-01T01:10:37;5;;;1.7;;
77953;SDS011;67151;52.544;6.034;2023-02-01T01:10:52;5;;;1.6;;
77953;SDS011;67151;52.544;6.034;2023-02-01T01:11:08;4.2;;;1.6;;
77953;SDS011;67151;52.544;6.034;2023-02-01T01:11:24;4.7;;;1.6;;
77953;SDS011;67151;52.544;6.034;2023-02-01T01:11:37;4.2;;;1.5;;
77953;SDS011;67151;52.544;6.034;2023-02-01T01:11:52;3.8;;;1.6;;
77953;SDS011;67151;52.544;6.034;2023-02-01T01:12:07;4;;;1.4;;
77953;SDS011;67151;52.544;6.034;2023-02-01T01:12:22;4.9;;;1.6;;
77953;SDS011;67151;52.544;6.034;2023-02-01T01:12:37;5;;;1.7;;
77953;SDS011;67151;52.544;6.034;2023-02-01T01:12:52;3.9;;;1.5;;
77953;SDS011;67151;52.544;6.034;2023-02-01T01:13:08;4.1;;;1.5;;
77953;SDS011;67151;52.544;6.034;2023-02-01T01:13:22;4.5;;;1.6;;
77953;SDS011;67151;52.544;6.034;2023-02-01T01:13:37;4.5;;;1.4;;
77953;SDS011;67151;52.544;6.034;2023-02-01T01:13:53;4.1;;;1.4;;
77953;SDS011;67151;52.544;6.034;2023-02-01T01:14:07;3.7;;;1.4;;
77953;SDS011;67151;52.544;6.034;2023-02-01T01:14:22;4.2;;;1.6;;
77953;SDS011;67151;52.544;6.034;2023-02-01T01:14:37;4.4;;;1.6;;
77953;SDS011;67151;52.544;6.034;2023-02-01T01:14:52;3.6;;;1.3;;
77953;SDS011;67151;52.544;6.034;2023-02-01T01:15:07;4.2;;;1.5;;
77953;SDS011;67151;52.544;6.034;2023-02-01T01:15:22;5.2;;;1.7;;
77953;SDS011;67151;52.544;6.034;2023-02-01T01:15:38;5.1;;;1.8;;
77953;SDS011;67151;52.544;6.034;2023-02-01T01:15:52;5.2;;;1.6;;
77953;SDS011;67151;52.544;6.034;2023-02-01T01:16:08;5;;;1.5;;
77953;SDS011;67151;52.544;6.034;2023-02-01T01:16:29;4.1;;;1.7;;
77953;SDS011;67151;52.544;6.034;2023-02-01T01:16:37;5.4;;;1.8;;
77953;SDS011;67151;52.544;6.034;2023-02-01T01:16:52;6.6;;;1.7;;
77953;SDS011;67151;52.544;6.034;2023-02-01T01:17:07;5;;;1.5;;
77953;SDS011;67151;52.544;6.034;2023-02-01T01:17:22;5.3;;;1.6;;
77953;SDS011;67151;52.544;6.034;2023-02-01T01:17:37;7;;;1.8;;
77953;SDS011;67151;52.544;6.034;2023-02-01T01:17:52;5.6;;;1.9;;
77953;SDS011;67151;52.544;6.034;2023-02-01T01:18:07;4.4;;;1.8;;
77953;SDS011;67151;52.544;6.034;2023-02-01T01:18:22;5.3;;;1.6;;
77953;SDS011;67151;52.544;6.034;2023-02-01T01:18:37;4.6;;;1.6;;
77953;SDS011;67151;52.544;6.034;2023-02-01T01:18:52;4.1;;;1.6;;
77953;SDS011;67151;52.544;6.034;2023-02-01T01:19:08;4.3;;;1.6;;
77953;SDS011;67151;52.544;6.034;2023-02-01T01:19:22;4.5;;;1.6;;
77953;SDS011;67151;52.544;6.034;2023-02-01T01:19:37;4.9;;;1.5;;
77953;SDS011;67151;52.544;6.034;2023-02-01T01:19:52;4.5;;;1.5;;
77953;SDS011;67151;52.544;6.034;2023-02-01T01:20:08;4.6;;;1.6;;
77953;SDS011;67151;52.544;6.034;2023-02-01T01:20:22;4.2;;;1.6;;
77953;SDS011;67151;52.544;6.034;2023-02-01T01:20:38;6.3;;;1.6;;
77953;SDS011;67151;52.544;6.034;2023-02-01T01:20:52;7.5;;;1.6;;
77953;SDS011;67151;52.544;6.034;2023-02-01T01:21:08;4.7;;;1.6;;
77953;SDS011;67151;52.544;6.034;2023-02-01T01:21:22;3.8;;;1.6;;
77953;SDS011;67151;52.544;6.034;2023-02-01T01:21:37;4.7;;;1.8;;
77953;SDS011;67151;52.544;6.034;2023-02-01T01:21:52;4.8;;;1.9;;
77953;SDS011;67151;52.544;6.034;2023-02-01T01:22:08;4;;;1.7;;
77953;SDS011;67151;52.544;6.034;2023-02-01T01:22:22;5.2;;;1.7;;
77953;SDS011;67151;52.544;6.034;2023-02-01T01:22:37;5.1;;;1.8;;
77953;SDS011;67151;52.544;6.034;2023-02-01T01:22:52;4.2;;;1.7;;
77953;SDS011;67151;52.544;6.034;2023-02-01T01:23:08;4.6;;;1.6;;
77953;SDS011;67151;52.544;6.034;2023-02-01T01:23:22;4.5;;;1.5;;
77953;SDS011;67151;52.544;6.034;2023-02-01T01:23:37;4;;;1.5;;
77953;SDS011;67151;52.544;6.034;2023-02-01T01:23:52;4.1;;;1.6;;
77953;SDS011;67151;52.544;6.034;2023-02-01T01:24:07;5;;;1.7;;
77953;SDS011;67151;52.544;6.034;2023-02-01T01:24:23;5.2;;;1.7;;
77953;SDS011;67151;52.544;6.034;2023-02-01T01:24:37;4.8;;;1.6;;
77953;SDS011;67151;52.544;6.034;2023-02-01T01:24:52;3.9;;;1.4;;
77953;SDS011;67151;52.544;6.034;2023-02-01T01:25:07;5.2;;;1.6;;
77953;SDS011;67151;52.544;6.034;2023-02-01T01:25:22;5.5;;;1.6;;
77953;SDS011;67151;52.544;6.034;2023-02-01T01:25:37;4.1;;;1.5;;
77953;SDS011;67151;52.544;6.034;2023-02-01T01:25:52;4.1;;;1.4;;
77953;SDS011;67151;52.544;6.034;2023-02-01T01:26:07;3.5;;;1.3;;
77953;SDS011;67151;52.544;6.034;2023-02-01T01:26:23;3.4;;;1.2;;
77953;SDS011;67151;52.544;6.034;2023-02-01T01:26:37;4.6;;;1.3;;
77953;SDS011;67151;52.544;6.034;2023-02-01T01:26:52;4.7;;;1.4;;
77953;SDS011;67151;52.544;6.034;2023-02-01T01:27:07;4;;;1.4;;
77953;SDS011;67151;52.544;6.034;2023-02-01T01:27:22;4.4;;;1.7;;
77953;SDS011;67151;52.544;6.034;2023-02-01T01:27:37;4.1;;;1.7;;
77953;SDS011;67151;52.544;6.034;2023-02-01T01:27:52;3.7;;;1.4;;
77953;SDS011;67151;52.544;6.034;2023-02-01T01:28:07;4.1;;;1.5;;
77953;SDS011;67151;52.544;6.034;2023-02-01T01:28:22;4;;;1.5;;
77953;SDS011;67151;52.544;6.034;2023-02-01T01:28:37;4.1;;;1.5;;
77953;SDS011;67151;52.544;6.034;2023-02-01T01:28:54;3.7;;;1.6;;
77953;SDS011;67151;52.544;6.034;2023-02-01T01:29:08;3.4;;;1.7;;
77953;SDS011;67151;52.544;6.034;2023-02-01T01:29:22;3.9;;;1.6;;
77953;SDS011;67151;52.544;6.034;2023-02-01T01:29:38;3.4;;;1.5;;
77953;SDS011;67151;52.544;6.034;2023-02-01T01:29:52;3.8;;;1.7;;
77953;SDS011;67151;52.544;6.034;2023-02-01T01:30:07;4.2;;;1.7;;
77953;SDS011;67151;52.544;6.034;2023-02-01T01:30:22;3.5;;;1.4;;
77953;SDS011;67151;52.544;6.034;2023-02-01T01:30:37;3.8;;;1.4;;
77953;SDS011;67151;52.544;6.034;2023-02-01T01:30:53;4.1;;;1.5;;
77953;SDS011;67151;52.544;6.034;2023-02-01T01:31:08;3.9;;;1.5;;
77953;SDS011;67151;52.544;6.034;2023-02-01T01:31:22;4;;;1.5;;
77953;SDS011;67151;52.544;6.034;2023-02-01T01:31:37;4;;;1.5;;
77953;SDS011;67151;52.544;6.034;2023-02-01T01:31:52;4.2;;;1.5;;
77953;SDS011;67151;52.544;6.034;2023-02-01T01:32:07;4.6;;;1.5;;
77953;SDS011;67151;52.544;6.034;2023-02-01T01:32:22;4.8;;;1.6;;
77953;SDS011;67151;52.544;6.034;2023-02-01T01:32:41;4.7;;;1.7;;
77953;SDS011;67151;52.544;6.034;2023-02-01T01:32:52;4.1;;;1.6;;
77953;SDS011;67151;52.544;6.034;2023-02-01T01:33:07;3.7;;;1.5;;
77953;SDS011;67151;52.544;6.034;2023-02-01T01:33:25;3.9;;;1.6;;
77953;SDS011;67151;52.544;6.034;2023-02-01T01:33:37;4.2;;;1.6;;